Time;durP1;ratioP1;P1;durP2;ratioP2;P2;SDS_P1;SDS_P2;PMS_P1;PMS_P2;Temp;Humidity;BMP_temperature;BMP_pressure;BME280_temperature;BME280_humidity;BME280_pressure;Samples;Min_cycle;Max_cycle;Signal;HPM_P1;HPM_P2
2022/05/29 03:02:57;;;;;;;10.93;10.33;;;10.80;99.90;;;;;;5119509;22;20309;-76
2022/05/29 03:05:41;;;;;;;9.40;8.47;;;10.70;99.90;;;;;;4996562;28;20685;-76
2022/05/29 03:08:18;;;;;;;7.47;6.87;;;10.70;99.90;;;;;;5014093;28;20660;-75
2022/05/29 03:11:10;;;;;;;9.37;8.77;;;10.70;99.90;;;;;;5014433;28;20211;-75
2022/05/29 03:13:59;;;;;;;7.73;7.23;;;10.60;99.90;;;;;;5027848;22;20278;-78
2022/05/29 03:16:43;;;;;;;7.73;7.23;;;10.60;99.90;;;;;;4996797;28;20226;-72
2022/05/29 03:19:35;;;;;;;6.90;6.50;;;10.60;99.90;;;;;;4998907;28;20206;-71
2022/05/29 03:22:06;;;;;;;6.63;6.10;;;10.50;99.90;;;;;;5021728;28;20183;-71
2022/05/29 03:24:58;;;;;;;8.40;7.37;;;10.50;99.90;;;;;;5030029;28;20199;-72
2022/05/29 03:27:34;;;;;;;7.53;7.03;;;10.40;99.90;;;;;;5032995;28;20270;-72
2022/05/29 03:30:32;;;;;;;8.20;7.50;;;10.30;99.90;;;;;;5033188;28;20712;-70
2022/05/29 03:33:06;;;;;;;8.57;7.83;;;10.20;99.90;;;;;;5015896;28;20698;-72
2022/05/29 03:35:44;;;;;;;9.23;8.50;;;10.20;99.90;;;;;;5015680;28;20203;-72
2022/05/29 03:38:10;;;;;;;15.80;14.80;;;10.20;99.90;;;;;;5032879;28;20206;-72
2022/05/29 03:40:37;;;;;;;15.93;15.10;;;10.20;99.90;;;;;;5032665;28;20179;-72
2022/05/29 03:43:03;;;;;;;17.57;16.37;;;10.30;99.90;;;;;;5015666;28;20756;-72
2022/05/29 03:45:29;;;;;;;13.17;12.37;;;10.30;99.90;;;;;;5033168;28;20237;-72
2022/05/29 03:47:55;;;;;;;17.27;16.13;;;10.30;99.90;;;;;;5015293;28;20179;-72
2022/05/29 03:50:23;;;;;;;228.90;44.77;;;10.40;99.90;;;;;;5015280;28;20179;-71
2022/05/29 03:52:49;;;;;;;9.60;8.93;;;10.40;99.90;;;;;;5033257;28;20186;-71
2022/05/29 03:55:20;;;;;;;8.30;7.80;;;10.40;99.90;;;;;;5015102;28;20210;-72
2022/05/29 03:57:47;;;;;;;10.83;10.13;;;10.40;99.90;;;;;;5032577;28;20224;-72
2022/05/29 04:00:13;;;;;;;10.10;9.50;;;10.40;99.90;;;;;;5015555;28;20182;-71
2022/05/29 04:02:40;;;;;;;7.47;6.87;;;10.50;99.90;;;;;;5015302;28;20186;-71
2022/05/29 04:05:11;;;;;;;6.43;6.03;;;10.50;99.90;;;;;;5015088;28;20191;-71
2022/05/29 04:13:07;;;;;;;6.57;6.17;;;10.50;99.90;;;;;;5032894;28;20187;-71
2022/05/29 04:15:33;;;;;;;6.27;5.87;;;10.50;99.90;;;;;;5014909;28;20268;-71
2022/05/29 04:17:59;;;;;;;7.70;7.10;;;10.50;99.90;;;;;;5032333;28;20182;-72
2022/05/29 04:20:25;;;;;;;8.47;7.87;;;10.50;99.90;;;;;;5032054;28;20178;-71
2022/05/29 04:22:50;;;;;;;9.10;8.47;;;10.50;99.90;;;;;;5019842;28;20209;-70
2022/05/29 04:25:16;;;;;;;16.00;15.03;;;10.60;99.90;;;;;;5050035;28;20191;-71
2022/05/29 04:27:42;;;;;;;47.27;44.97;;;10.60;99.90;;;;;;5033031;28;20194;-71
2022/05/29 04:30:08;;;;;;;34.63;32.77;;;10.60;99.90;;;;;;5032347;28;20273;-72
2022/05/29 04:35:18;;;;;;;17.20;16.30;;;10.70;99.90;;;;;;5032560;28;20482;-72
2022/05/29 04:37:44;;;;;;;35.03;33.17;;;10.80;99.90;;;;;;5031969;28;20234;-71
2022/05/29 04:40:10;;;;;;;25.80;24.50;;;10.90;99.90;;;;;;5033206;28;20183;-71
2022/05/29 04:42:36;;;;;;;23.87;22.50;;;10.90;99.90;;;;;;5032815;28;20599;-72
2022/05/29 04:45:02;;;;;;;19.73;18.60;;;11.00;99.90;;;;;;5032159;28;20202;-72
2022/05/29 04:47:28;;;;;;;10.77;10.17;;;11.10;99.90;;;;;;5030795;28;20273;-72
2022/05/29 04:49:54;;;;;;;16.67;15.63;;;11.10;99.90;;;;;;5032219;28;20237;-72
2022/05/29 04:52:20;;;;;;;23.70;22.50;;;11.20;99.90;;;;;;5032075;28;20186;-72
2022/05/29 04:54:46;;;;;;;11.20;10.40;;;11.30;99.90;;;;;;5014466;28;20230;-72
2022/05/29 04:57:12;;;;;;;8.77;8.10;;;11.40;99.90;;;;;;5031526;28;20752;-71
2022/05/29 04:59:38;;;;;;;11.37;8.40;;;11.50;99.90;;;;;;5014144;28;20535;-72
2022/05/29 05:02:05;;;;;;;10.20;9.47;;;11.50;99.90;;;;;;5031161;28;20207;-71
2022/05/29 05:04:31;;;;;;;11.90;11.13;;;11.70;99.90;;;;;;5014109;28;20257;-71
2022/05/29 05:07:01;;;;;;;10.33;9.30;;;11.80;99.90;;;;;;5031515;28;20191;-72
2022/05/29 05:09:28;;;;;;;13.83;13.03;;;11.90;99.90;;;;;;5031665;28;20183;-71
2022/05/29 05:11:55;;;;;;;16.23;15.13;;;11.90;99.90;;;;;;5031755;28;20205;-71
2022/05/29 05:14:22;;;;;;;20.93;19.80;;;12.00;99.90;;;;;;5031225;28;20210;-72
2022/05/29 05:16:49;;;;;;;13.97;13.07;;;12.00;99.90;;;;;;5013623;28;20618;-72
2022/05/29 05:19:15;;;;;;;9.33;8.73;;;12.00;99.90;;;;;;5031434;28;20749;-71
2022/05/29 05:21:42;;;;;;;8.17;7.53;;;12.00;99.90;;;;;;5031539;28;20211;-71
2022/05/29 05:24:08;;;;;;;7.60;6.97;;;12.00;99.90;;;;;;5031557;28;20196;-74
2022/05/29 05:26:35;;;;;;;6.90;6.43;;;12.00;99.90;;;;;;5014027;28;20189;-73
2022/05/29 05:29:01;;;;;;;7.83;7.33;;;12.00;99.90;;;;;;5030785;28;20543;-73
2022/05/29 05:31:26;;;;;;;12.43;11.57;;;11.70;99.90;;;;;;5031473;28;20179;-73
2022/05/29 05:33:52;;;;;;;10.83;10.23;;;11.50;99.90;;;;;;5030600;28;21028;-73
2022/05/29 05:36:19;;;;;;;30.37;28.80;;;11.10;99.90;;;;;;5030770;28;20666;-73
2022/05/29 05:38:46;;;;;;;39.73;37.67;;;10.90;99.90;;;;;;5014678;28;20254;-73
2022/05/29 05:41:13;;;;;;;25.80;24.53;;;10.70;99.90;;;;;;5010775;28;20556;-73
2022/05/29 05:43:39;;;;;;;15.63;14.10;;;10.50;99.90;;;;;;5011381;28;20180;-73
2022/05/29 05:46:07;;;;;;;10.33;9.67;;;10.40;99.90;;;;;;5010212;28;20187;-73
2022/05/29 05:48:34;;;;;;;9.97;9.13;;;10.40;99.90;;;;;;5009889;28;20271;-73
2022/05/29 05:51:00;;;;;;;11.10;10.30;;;10.50;99.90;;;;;;5011466;28;20267;-73
2022/05/29 05:53:26;;;;;;;10.77;9.87;;;10.60;99.90;;;;;;5011243;28;20664;-74
2022/05/29 05:55:52;;;;;;;12.00;11.00;;;10.70;99.90;;;;;;5014137;28;20206;-74
2022/05/29 05:58:18;;;;;;;11.37;10.57;;;10.70;99.90;;;;;;5012952;28;20542;-73
2022/05/29 06:00:45;;;;;;;10.40;9.70;;;10.80;99.90;;;;;;5030372;28;20221;-73
2022/05/29 06:03:11;;;;;;;12.93;12.10;;;10.80;99.90;;;;;;4991845;28;20188;-73
2022/05/29 06:05:39;;;;;;;15.80;14.77;;;10.90;99.90;;;;;;4994224;28;20642;-73
2022/05/29 06:08:06;;;;;;;9.13;8.40;;;10.90;99.90;;;;;;5011245;28;20195;-73
2022/05/29 06:10:32;;;;;;;12.10;11.40;;;11.00;99.90;;;;;;4998732;28;20183;-73
2022/05/29 06:13:03;;;;;;;12.93;11.93;;;11.10;99.90;;;;;;5030727;28;20183;-74
2022/05/29 06:15:28;;;;;;;13.03;12.23;;;11.30;99.90;;;;;;5013320;28;20225;-73
2022/05/29 06:17:54;;;;;;;10.63;9.93;;;11.30;99.90;;;;;;5024780;28;20203;-73
2022/05/29 06:20:20;;;;;;;9.53;8.83;;;11.50;99.90;;;;;;5012995;28;20191;-73
2022/05/29 06:22:46;;;;;;;11.77;11.07;;;11.50;99.90;;;;;;5012088;28;20179;-73
2022/05/29 06:25:12;;;;;;;5.80;5.40;;;11.60;99.90;;;;;;5021543;28;20669;-73
2022/05/29 06:27:41;;;;;;;7.80;7.03;;;11.60;99.90;;;;;;5025784;28;20186;-73
2022/05/29 06:30:09;;;;;;;30.43;28.87;;;11.70;99.90;;;;;;5001050;28;20179;-73
2022/05/29 06:32:39;;;;;;;45.17;42.97;;;11.80;99.90;;;;;;5009785;28;20190;-73
2022/05/29 06:35:06;;;;;;;28.23;26.43;;;11.80;99.90;;;;;;5010531;28;20206;-73
2022/05/29 06:37:32;;;;;;;30.30;28.80;;;12.00;99.90;;;;;;5010111;28;20212;-74
2022/05/29 06:39:58;;;;;;;31.63;29.87;;;12.10;99.90;;;;;;5010631;28;20194;-74
2022/05/29 06:42:25;;;;;;;38.03;35.83;;;12.20;99.90;;;;;;5010565;28;20176;-71
2022/05/29 06:44:50;;;;;;;19.40;18.30;;;12.20;99.90;;;;;;5010440;28;20195;-74
2022/05/29 06:47:18;;;;;;;23.03;21.73;;;12.30;99.90;;;;;;5010959;28;20528;-74
2022/05/29 06:49:48;;;;;;;26.40;24.93;;;12.30;99.90;;;;;;5010456;28;20238;-72
2022/05/29 06:52:14;;;;;;;12.97;12.13;;;12.40;99.90;;;;;;5012319;28;20238;-73
2022/05/29 06:54:40;;;;;;;10.40;9.60;;;12.30;99.90;;;;;;5013786;28;20206;-74
2022/05/29 06:57:07;;;;;;;9.57;8.97;;;12.20;99.90;;;;;;4996257;28;20208;-72
2022/05/29 07:07:51;;;;;;;8.50;7.83;;;12.40;99.90;;;;;;5013557;28;20187;-71
2022/05/29 07:10:17;;;;;;;10.60;10.00;;;12.40;99.90;;;;;;5013795;28;20184;-72
2022/05/29 07:12:44;;;;;;;11.07;10.37;;;12.50;99.90;;;;;;5013654;28;20187;-71
2022/05/29 07:15:10;;;;;;;10.57;9.63;;;12.70;99.90;;;;;;5010776;28;20245;-72
2022/05/29 07:17:36;;;;;;;21.97;20.77;;;12.80;99.90;;;;;;5032179;28;20199;-72
2022/05/29 07:20:03;;;;;;;15.70;14.70;;;12.90;99.90;;;;;;5032809;28;20183;-71
2022/05/29 07:22:31;;;;;;;7.67;7.07;;;13.10;99.90;;;;;;5033726;28;20237;-71
2022/05/29 07:24:57;;;;;;;7.47;6.97;;;13.40;99.90;;;;;;5033280;28;20285;-72
2022/05/29 07:27:23;;;;;;;8.37;7.77;;;13.60;99.90;;;;;;5032843;28;20275;-72
2022/05/29 07:29:49;;;;;;;7.47;6.83;;;13.80;99.90;;;;;;5015663;28;20451;-72
2022/05/29 07:32:16;;;;;;;6.27;5.87;;;14.10;99.90;;;;;;5015673;28;20561;-71
2022/05/29 07:34:43;;;;;;;28.07;26.47;;;14.30;99.90;;;;;;5032896;28;20199;-71
2022/05/29 07:37:13;;;;;;;29.33;27.47;;;14.60;99.90;;;;;;5015366;28;20211;-72
2022/05/29 07:39:42;;;;;;;9.57;8.97;;;14.80;99.90;;;;;;5032457;28;20266;-72
2022/05/29 07:44:54;;;;;;;8.90;8.30;;;15.30;99.90;;;;;;5033604;28;20858;-72
2022/05/29 07:47:21;;;;;;;5.50;4.70;;;16.00;99.90;;;;;;5033124;28;20187;-72
2022/05/29 07:49:47;;;;;;;7.80;7.20;;;16.20;99.90;;;;;;5042982;28;20209;-72
2022/05/29 07:52:13;;;;;;;10.57;9.90;;;16.30;99.90;;;;;;5042879;28;20187;-73
2022/05/29 07:54:39;;;;;;;13.53;12.77;;;16.30;99.90;;;;;;5015673;28;20253;-75
2022/05/29 07:57:06;;;;;;;14.47;13.63;;;16.70;99.90;;;;;;5032715;28;20678;-73
2022/05/29 07:59:32;;;;;;;13.07;12.37;;;16.70;99.90;;;;;;5015751;28;20233;-73
2022/05/29 08:01:57;;;;;;;15.47;14.37;;;16.80;99.90;;;;;;5033581;28;20183;-73
2022/05/29 08:04:23;;;;;;;17.87;16.83;;;16.80;99.90;;;;;;5032620;28;20203;-73
2022/05/29 08:06:51;;;;;;;4.53;4.33;;;17.30;99.90;;;;;;5037290;28;20176;-72
2022/05/29 08:09:19;;;;;;;7.10;6.63;;;17.90;99.90;;;;;;5013961;28;20184;-72
2022/05/29 08:11:45;;;;;;;21.73;20.47;;;18.80;99.90;;;;;;5026021;28;20183;-73
2022/05/29 08:14:11;;;;;;;20.87;19.87;;;19.40;99.90;;;;;;5016837;28;20312;-71
2022/05/29 08:16:38;;;;;;;16.47;15.40;;;19.30;99.90;;;;;;5012198;28;20616;-72
2022/05/29 08:19:04;;;;;;;16.70;15.80;;;19.20;99.90;;;;;;5014205;28;20278;-73
2022/05/29 08:21:29;;;;;;;6.57;6.07;;;19.80;99.90;;;;;;5032692;28;20270;-72
2022/05/29 08:32:08;;;;;;;8.60;8.00;;;19.30;99.90;;;;;;5031930;28;20576;-74
2022/05/29 08:34:34;;;;;;;6.45;5.95;;;20.00;99.90;;;;;;5032632;28;20203;-72
2022/05/29 08:37:00;;;;;;;4.82;4.43;;;20.90;98.70;;;;;;5032413;28;20318;-74
2022/05/29 08:39:25;;;;;;;3.67;3.40;;;21.40;95.70;;;;;;5032239;28;20603;-74
2022/05/29 08:41:53;;;;;;;3.67;3.38;;;21.20;95.30;;;;;;5032659;28;20217;-73
2022/05/29 08:44:42;;;;;;;5.35;3.60;;;21.20;94.70;;;;;;5032572;28;20281;-74
2022/05/29 08:47:08;;;;;;;4.72;4.30;;;21.20;95.10;;;;;;5032032;28;20293;-73
2022/05/29 08:49:39;;;;;;;4.70;3.72;;;22.20;92.50;;;;;;5014585;28;20191;-71
2022/05/29 08:52:20;;;;;;;3.78;3.47;;;22.50;90.20;;;;;;5032547;28;20195;-74
2022/05/29 08:55:10;;;;;;;4.68;4.35;;;22.60;90.40;;;;;;5014897;28;20206;-74
2022/05/29 08:58:04;;;;;;;5.20;4.40;;;22.00;88.30;;;;;;5031709;28;20273;-72
2022/05/29 09:00:49;;;;;;;4.20;3.80;;;21.10;90.30;;;;;;5031990;28;20179;-74
2022/05/29 09:03:47;;;;;;;5.40;5.03;;;20.30;87.70;;;;;;5032080;28;20658;-74
2022/05/29 09:06:24;;;;;;;5.00;4.00;;;19.60;86.00;;;;;;4978109;28;20651;-74
2022/05/29 09:08:59;;;;;;;4.67;4.47;;;18.40;92.10;;;;;;5031512;28;20650;-73
2022/05/29 09:11:38;;;;;;;9.07;8.37;;;17.50;93.80;;;;;;5032078;28;20213;-73
2022/05/29 09:14:19;;;;;;;9.20;8.70;;;16.70;96.10;;;;;;5051665;23;20207;-76
2022/05/29 09:16:47;;;;;;;7.03;6.40;;;15.90;97.30;;;;;;5011755;28;20227;-76
2022/05/29 09:19:52;;;;;;;16.60;15.77;;;15.30;99.90;;;;;;5013204;28;20175;-77
2022/05/29 09:22:24;;;;;;;6.17;5.77;;;15.00;99.90;;;;;;4951312;28;20222;-77
2022/05/29 09:25:05;;;;;;;4.47;4.17;;;14.80;99.90;;;;;;5021513;28;20211;-76
2022/05/29 09:27:32;;;;;;;5.67;5.30;;;14.50;99.90;;;;;;5031369;28;20224;-76
2022/05/29 09:29:58;;;;;;;8.60;8.10;;;14.20;99.90;;;;;;5006385;28;20222;-76
2022/05/29 09:32:30;;;;;;;12.30;11.37;;;13.50;99.90;;;;;;4994385;28;20215;-76
2022/05/29 09:35:27;;;;;;;41.03;38.43;;;12.70;99.90;;;;;;5011705;28;20203;-77
2022/05/29 09:38:01;;;;;;;29.57;27.37;;;11.80;99.90;;;;;;5011423;28;20306;-77
2022/05/29 09:40:32;;;;;;;39.37;36.63;;;11.10;99.90;;;;;;5022656;28;20285;-78
2022/05/29 09:43:12;;;;;;;185.70;174.43;;;10.70;99.90;;;;;;5013992;28;20249;-77
2022/05/29 09:45:38;;;;;;;86.83;81.30;;;10.30;99.90;;;;;;5031498;28;20210;-77
2022/05/29 09:51:27;;;;;;;21.93;20.00;;;9.80;99.90;;;;;;5011731;28;20183;-78
2022/05/29 09:54:00;;;;;;;29.43;27.47;;;9.90;99.90;;;;;;5011502;28;20179;-78
2022/05/29 09:56:31;;;;;;;37.77;35.63;;;10.00;99.90;;;;;;5012270;28;20208;-78
2022/05/29 09:59:12;;;;;;;41.60;39.07;;;10.10;99.90;;;;;;5021379;28;20202;-78
2022/05/29 10:01:42;;;;;;;42.43;39.80;;;10.30;99.90;;;;;;5014071;28;20233;-77
2022/05/29 10:04:37;;;;;;;41.27;38.43;;;10.20;99.90;;;;;;5013659;28;20175;-78
2022/05/29 10:07:17;;;;;;;28.67;26.73;;;10.10;99.90;;;;;;5009743;28;20677;-78
2022/05/29 10:10:05;;;;;;;23.97;22.50;;;10.00;99.90;;;;;;5013530;28;20193;-77
2022/05/29 10:12:39;;;;;;;22.47;21.10;;;10.00;99.90;;;;;;5013583;28;20185;-77
2022/05/29 10:15:13;;;;;;;26.03;24.13;;;10.00;99.90;;;;;;5031093;28;20220;-77
2022/05/29 10:17:40;;;;;;;25.37;23.23;;;10.00;99.90;;;;;;5012912;28;20253;-77
2022/05/29 10:20:33;;;;;;;19.40;18.07;;;10.10;99.90;;;;;;5009198;28;20210;-77
2022/05/29 10:23:03;;;;;;;11.43;10.60;;;10.00;99.90;;;;;;4999837;28;20188;-76
2022/05/29 10:25:36;;;;;;;26.40;24.03;;;9.80;99.90;;;;;;4993998;28;20199;-77
2022/05/29 10:28:11;;;;;;;72.37;66.87;;;9.40;99.90;;;;;;5016724;28;20188;-77
2022/05/29 10:30:59;;;;;;;22.20;20.60;;;9.20;99.90;;;;;;5035159;28;20552;-77
2022/05/29 10:33:28;;;;;;;14.63;13.77;;;8.80;99.90;;;;;;5017598;28;20709;-76
2022/05/29 10:35:59;;;;;;;14.93;13.90;;;8.70;99.90;;;;;;5035000;28;20758;-77
2022/05/29 10:38:28;;;;;;;16.20;15.13;;;8.70;99.90;;;;;;5028942;28;20278;-76
2022/05/29 10:41:00;;;;;;;27.40;25.67;;;8.60;99.90;;;;;;4997748;28;20262;-77
2022/05/29 10:43:43;;;;;;;36.23;34.10;;;8.60;99.90;;;;;;5015083;28;20186;-77
2022/05/29 10:46:42;;;;;;;32.37;30.43;;;8.70;99.90;;;;;;5015093;28;20207;-77
2022/05/29 10:49:24;;;;;;;16.20;11.63;;;8.90;99.90;;;;;;4997695;28;20188;-76
2022/05/29 10:52:20;;;;;;;11.33;10.47;;;8.80;99.90;;;;;;5014851;28;20195;-76
2022/05/29 10:55:21;;;;;;;17.33;15.93;;;8.90;99.90;;;;;;5014915;28;20687;-77
2022/05/29 10:58:13;;;;;;;11.20;10.30;;;9.10;99.90;;;;;;5014526;28;20217;-77
2022/05/29 11:04:11;;;;;;;13.70;12.50;;;9.20;99.90;;;;;;4995435;28;20215;-77
2022/05/29 11:06:59;;;;;;;12.50;11.60;;;9.40;99.90;;;;;;4995017;28;20734;-77
2022/05/29 11:09:40;;;;;;;28.80;26.97;;;9.70;99.90;;;;;;5022110;28;20187;-77
2022/05/29 11:12:21;;;;;;;20.57;19.33;;;9.70;99.90;;;;;;5017261;28;20646;-77
2022/05/29 11:15:16;;;;;;;8.50;7.80;;;9.70;99.90;;;;;;5016426;28;20284;-77
2022/05/29 11:17:52;;;;;;;8.07;7.53;;;9.60;99.90;;;;;;5034247;28;20215;-77
2022/05/29 11:20:37;;;;;;;9.23;8.40;;;9.50;99.90;;;;;;5003601;28;20189;-78
2022/05/29 11:23:32;;;;;;;23.97;22.53;;;9.40;99.90;;;;;;5017355;28;20179;-77
2022/05/29 11:26:19;;;;;;;55.73;52.23;;;9.60;99.90;;;;;;5017538;28;20230;-77
2022/05/29 11:28:48;;;;;;;41.67;39.03;;;9.80;99.90;;;;;;5023504;28;20186;-76
2022/05/29 11:31:17;;;;;;;22.87;21.57;;;9.70;99.90;;;;;;5002114;28;20213;-78
2022/05/29 11:34:20;;;;;;;32.67;30.57;;;9.90;99.90;;;;;;5002991;28;20184;-78
2022/05/29 11:37:06;;;;;;;25.27;23.73;;;9.90;99.90;;;;;;4955833;28;20243;-78
2022/05/29 11:39:40;;;;;;;17.47;16.17;;;9.90;99.90;;;;;;4995275;28;20187;-78
2022/05/29 11:42:13;;;;;;;17.23;15.90;;;10.00;99.90;;;;;;5013722;28;20175;-77
2022/05/29 11:44:43;;;;;;;12.97;11.90;;;10.20;99.90;;;;;;4996406;28;20671;-77
2022/05/29 11:53:22;;;;;;;14.97;13.97;;;10.20;99.90;;;;;;4994134;28;20184;-77
2022/05/29 11:55:49;;;;;;;7.70;7.17;;;10.40;99.90;;;;;;4976561;28;20204;-77
2022/05/29 11:58:30;;;;;;;14.90;14.00;;;10.60;99.90;;;;;;4981867;28;20271;-76
2022/05/29 12:01:21;;;;;;;56.73;53.73;;;10.70;99.90;;;;;;5015629;28;20193;-77
2022/05/29 12:04:01;;;;;;;25.23;23.93;;;10.70;99.90;;;;;;5015433;28;20179;-78
2022/05/29 12:06:45;;;;;;;34.20;31.97;;;10.70;99.90;;;;;;5033582;28;20185;-77
2022/05/29 12:09:35;;;;;;;26.07;24.57;;;10.90;99.90;;;;;;5005763;28;20187;-78
2022/05/29 12:12:38;;;;;;;23.30;21.67;;;11.10;99.90;;;;;;4995829;28;20250;-78
2022/05/29 12:15:12;;;;;;;27.07;25.17;;;11.00;99.90;;;;;;4995644;28;20214;-77
2022/05/29 12:17:54;;;;;;;24.83;23.40;;;11.00;99.90;;;;;;5012568;28;20215;-76
2022/05/29 12:20:26;;;;;;;29.70;28.17;;;11.30;99.90;;;;;;5013235;28;20277;-78
2022/05/29 12:23:05;;;;;;;25.57;24.10;;;11.50;99.90;;;;;;4995757;28;20568;-77
2022/05/29 12:25:40;;;;;;;47.67;45.27;;;11.60;99.90;;;;;;4995797;28;20203;-76
2022/05/29 12:28:15;;;;;;;12.73;12.03;;;11.90;99.90;;;;;;4995610;28;20187;-75
2022/05/29 12:30:45;;;;;;;20.60;19.37;;;12.10;99.90;;;;;;5013870;28;20183;-77
2022/05/29 12:33:15;;;;;;;7.73;7.13;;;12.30;99.90;;;;;;5014031;28;20201;-78
2022/05/29 12:36:01;;;;;;;49.57;47.00;;;12.50;99.90;;;;;;5017990;28;20203;-71
2022/05/29 12:38:54;;;;;;;10.80;10.00;;;13.00;99.90;;;;;;5014630;28;20202;-71
2022/05/29 12:41:26;;;;;;;16.87;15.93;;;13.60;99.90;;;;;;5032430;28;20257;-70
2022/05/29 12:44:08;;;;;;;22.33;21.10;;;14.20;99.90;;;;;;5032198;28;20560;-71
2022/05/29 12:46:56;;;;;;;17.10;16.23;;;15.10;99.90;;;;;;5032121;28;20191;-71
2022/05/29 12:49:53;;;;;;;9.37;8.57;;;16.80;99.90;;;;;;5021200;28;20238;-71
2022/05/29 12:52:22;;;;;;;10.30;9.67;;;17.80;99.90;;;;;;4995043;28;20622;-74
2022/05/29 12:55:27;;;;;;;4.67;4.37;;;18.80;99.90;;;;;;4994987;28;20203;-77
2022/05/29 12:58:20;;;;;;;5.97;5.47;;;19.80;99.90;;;;;;5011358;28;20218;-78
2022/05/29 13:01:01;;;;;;;15.40;14.27;;;20.00;99.90;;;;;;4979192;28;20693;-78
2022/05/29 13:03:48;;;;;;;4.30;4.10;;;19.60;99.90;;;;;;5009748;28;20179;-76
2022/05/29 13:06:32;;;;;;;7.97;7.47;;;18.30;99.90;;;;;;4982126;28;20219;-75
2022/05/29 13:09:13;;;;;;;7.33;6.90;;;17.40;99.90;;;;;;4977761;28;20199;-75
2022/05/29 13:11:50;;;;;;;9.60;9.20;;;17.50;99.90;;;;;;5016901;28;20532;-75
2022/05/29 13:14:19;;;;;;;9.63;9.00;;;18.50;99.90;;;;;;5003795;28;20214;-76
2022/05/29 13:16:45;;;;;;;5.13;4.83;;;19.30;99.90;;;;;;4975801;28;20204;-75
2022/05/29 13:19:24;;;;;;;7.20;6.90;;;19.80;99.90;;;;;;5004391;28;20184;-74
2022/05/29 13:22:00;;;;;;;20.43;19.37;;;20.70;99.90;;;;;;4993855;28;20683;-74
2022/05/29 13:24:42;;;;;;;19.67;18.63;;;21.50;99.90;;;;;;4994204;28;20200;-75
2022/05/29 13:27:16;;;;;;;10.75;10.15;;;21.70;99.40;;;;;;4994262;28;20198;-76
2022/05/29 13:29:46;;;;;;;14.82;14.13;;;21.70;99.00;;;;;;5005293;28;20211;-75
2022/05/29 13:32:19;;;;;;;15.33;14.60;;;21.10;98.90;;;;;;4991575;28;20215;-76
2022/05/29 13:34:46;;;;;;;11.40;10.60;;;20.20;99.90;;;;;;5011505;28;20223;-75
2022/05/29 13:37:36;;;;;;;11.27;10.77;;;19.60;96.80;;;;;;4992274;28;20211;-75
2022/05/29 13:40:29;;;;;;;11.27;10.47;;;19.40;99.60;;;;;;5024140;28;20183;-75
2022/05/29 13:43:15;;;;;;;17.57;16.67;;;19.20;99.30;;;;;;5031236;28;20190;-75
2022/05/29 13:45:45;;;;;;;19.03;18.03;;;18.80;99.90;;;;;;5013655;28;20199;-74
2022/05/29 13:48:18;;;;;;;18.40;17.50;;;18.50;99.90;;;;;;5023775;28;20203;-75
2022/05/29 13:51:03;;;;;;;10.67;10.17;;;18.80;99.90;;;;;;4994259;28;20192;-74
2022/05/29 13:53:59;;;;;;;10.65;10.15;;;20.30;98.20;;;;;;4994061;28;20187;-75
2022/05/29 13:56:51;;;;;;;12.85;12.27;;;20.90;96.70;;;;;;5011583;28;20298;-75
2022/05/29 14:05:38;;;;;;;8.23;7.83;;;19.30;99.90;;;;;;4991919;28;20295;-75
2022/05/29 14:08:19;;;;;;;7.93;7.43;;;19.70;98.00;;;;;;4985503;28;20183;-74
2022/05/29 14:11:04;;;;;;;6.27;6.00;;;20.00;98.90;;;;;;5031154;28;20191;-74
2022/05/29 14:13:49;;;;;;;4.28;3.85;;;21.50;96.50;;;;;;5031309;28;20186;-74
2022/05/29 14:16:24;;;;;;;2.95;2.80;;;22.70;93.70;;;;;;5030772;28;20273;-75
2022/05/29 14:18:59;;;;;;;3.45;3.25;;;23.00;90.90;;;;;;5018923;28;20179;-74
2022/05/29 14:21:49;;;;;;;11.57;10.90;;;24.20;86.10;;;;;;5011360;28;20179;-74
2022/05/29 14:25:02;;;;;;;9.18;8.68;;;25.10;78.70;;;;;;5011401;28;20227;-74
2022/05/29 14:28:04;;;;;;;3.83;2.65;;;25.30;74.90;;;;;;5011295;28;20647;-73
2022/05/29 14:31:00;;;;;;;3.53;3.33;;;24.90;69.60;;;;;;4991956;28;20172;-75
2022/05/29 14:33:43;;;;;;;3.97;3.78;;;22.70;76.30;;;;;;4993056;28;20656;-74
2022/05/29 14:36:18;;;;;;;3.80;3.60;;;22.90;73.50;;;;;;4991692;28;20727;-75
2022/05/29 14:39:06;;;;;;;3.63;3.45;;;23.50;70.40;;;;;;4994681;28;20197;-74
2022/05/29 14:41:36;;;;;;;4.30;3.30;;;24.10;68.30;;;;;;5031154;28;20602;-75
2022/05/29 14:44:09;;;;;;;3.63;3.35;;;24.00;66.20;;;;;;5016096;28;20208;-74
2022/05/29 14:49:19;;;;;;;6.22;5.68;;;23.30;71.40;;;;;;5016616;28;20233;-74
2022/05/29 14:51:53;;;;;;;10.27;9.68;;;21.70;73.80;;;;;;5011333;28;20307;-75
2022/05/29 14:54:37;;;;;;;5.22;3.92;;;21.00;77.50;;;;;;5011265;28;20207;-75
2022/05/29 14:57:15;;;;;;;6.90;6.45;;;21.40;79.30;;;;;;4993154;28;20211;-75
2022/05/29 14:59:41;;;;;;;5.22;4.88;;;22.50;72.70;;;;;;5028370;28;20186;-76
2022/05/29 15:02:11;;;;;;;3.45;3.22;;;23.50;70.60;;;;;;5030721;28;20183;-75
2022/05/29 15:04:41;;;;;;;3.50;3.20;;;24.20;70.00;;;;;;5013127;28;20237;-75
2022/05/29 15:10:34;;;;;;;4.32;4.03;;;24.80;63.10;;;;;;4991685;28;20180;-76
2022/05/29 15:13:13;;;;;;;4.32;4.07;;;24.20;67.90;;;;;;4992729;28;20192;-75
2022/05/29 15:15:51;;;;;;;6.85;6.45;;;25.10;64.60;;;;;;5025295;23;20254;-72
2022/05/29 15:18:19;;;;;;;4.07;3.90;;;25.20;58.50;;;;;;5019177;28;20214;-72
2022/05/29 15:26:19;;;;;;;4.28;3.60;;;22.30;69.10;;;;;;5046396;28;20211;-72
2022/05/29 15:28:48;;;;;;;5.40;5.10;;;20.30;75.00;;;;;;5006896;28;20583;-72
2022/05/29 15:31:43;;;;;;;5.35;5.13;;;19.00;81.90;;;;;;5014249;28;20183;-72
2022/05/29 15:34:31;;;;;;;10.40;9.43;;;17.80;84.30;;;;;;5012619;28;20195;-72
2022/05/29 15:37:26;;;;;;;4.20;3.83;;;16.90;88.70;;;;;;5013856;28;20281;-71
2022/05/29 15:40:21;;;;;;;4.30;4.10;;;16.30;91.00;;;;;;5032184;28;20661;-71
2022/05/29 15:43:04;;;;;;;6.43;5.27;;;15.90;95.50;;;;;;5033867;28;20179;-71
2022/05/29 15:45:48;;;;;;;4.33;3.70;;;15.60;97.00;;;;;;5033652;28;20194;-71
2022/05/29 15:48:29;;;;;;;9.97;9.23;;;15.30;99.90;;;;;;5015012;28;20241;-71
2022/05/29 15:51:10;;;;;;;11.17;10.60;;;15.20;99.90;;;;;;5013886;28;20207;-71
2022/05/29 15:53:38;;;;;;;23.10;21.57;;;14.90;99.90;;;;;;5013720;28;20187;-72
2022/05/29 15:56:19;;;;;;;14.57;13.23;;;14.00;99.90;;;;;;5013709;28;20207;-70
2022/05/29 15:58:44;;;;;;;44.90;42.30;;;12.70;99.90;;;;;;5032796;28;20187;-71
2022/05/29 16:01:11;;;;;;;39.57;37.47;;;11.90;99.90;;;;;;5015684;28;20197;-71
2022/05/29 16:03:39;;;;;;;16.63;15.73;;;11.60;99.90;;;;;;5015494;28;20201;-71
2022/05/29 16:06:39;;;;;;;17.10;15.90;;;11.70;99.90;;;;;;5015134;28;20208;-71
2022/05/29 16:09:08;;;;;;;17.57;16.40;;;12.70;99.90;;;;;;5013192;28;20190;-71
2022/05/29 16:11:52;;;;;;;4.70;4.23;;;14.10;99.90;;;;;;5013436;28;20206;-71
2022/05/29 16:14:38;;;;;;;6.07;5.57;;;15.60;99.90;;;;;;4995904;28;20240;-72
2022/05/29 16:17:45;;;;;;;13.23;12.57;;;17.00;99.90;;;;;;5020586;28;20199;-71
2022/05/29 16:20:45;;;;;;;6.97;4.10;;;18.10;99.90;;;;;;5015519;28;20181;-72
2022/05/29 16:23:39;;;;;;;20.43;19.27;;;18.50;99.90;;;;;;5032864;28;20187;-72
2022/05/29 16:26:10;;;;;;;10.53;9.83;;;19.60;99.90;;;;;;5031914;28;20206;-71
2022/05/29 16:28:42;;;;;;;14.75;13.95;;;20.10;99.90;;;;;;4992818;28;20184;-74
2022/05/29 16:31:32;;;;;;;12.80;12.17;;;20.10;99.90;;;;;;4999656;28;20184;-72
2022/05/29 16:34:21;;;;;;;15.17;14.13;;;19.30;99.90;;;;;;4992996;28;20566;-71
2022/05/29 16:48:55;;;;;;;6.23;5.73;;;15.40;99.90;;;;;;4992509;28;20183;-71
2022/05/29 16:51:25;;;;;;;5.13;4.63;;;14.80;99.90;;;;;;4975825;28;20564;-71
2022/05/29 16:53:53;;;;;;;5.97;5.47;;;14.20;99.90;;;;;;5003291;28;20280;-71
2022/05/29 16:56:19;;;;;;;7.27;6.23;;;13.80;99.90;;;;;;4984805;28;20252;-71
2022/05/29 16:59:21;;;;;;;9.67;8.90;;;13.60;99.90;;;;;;5031824;28;20264;-71
2022/05/29 17:01:55;;;;;;;9.63;8.93;;;13.40;99.90;;;;;;4983692;28;20655;-71
2022/05/29 17:04:44;;;;;;;13.03;12.23;;;13.30;99.90;;;;;;5032154;28;20299;-71
2022/05/29 17:07:16;;;;;;;11.10;10.57;;;13.30;99.90;;;;;;5024336;28;20280;-72
2022/05/29 17:12:15;;;;;;;8.83;8.43;;;12.90;99.90;;;;;;5031643;28;20187;-72
2022/05/29 17:14:42;;;;;;;11.47;10.77;;;12.70;99.90;;;;;;5014028;28;20193;-72
2022/05/29 17:17:09;;;;;;;11.23;10.53;;;12.80;99.90;;;;;;5024033;28;20698;-71
2022/05/29 17:19:35;;;;;;;11.47;10.47;;;12.90;99.90;;;;;;4994313;28;20273;-71
2022/05/29 17:22:15;;;;;;;5.03;4.63;;;13.10;99.90;;;;;;5012024;28;20241;-71
2022/05/29 17:24:52;;;;;;;8.33;7.80;;;13.20;99.90;;;;;;5012060;28;20209;-71
2022/05/29 17:27:42;;;;;;;5.17;4.70;;;13.30;99.90;;;;;;5019258;28;20205;-72
2022/05/29 17:30:15;;;;;;;10.67;10.03;;;13.50;99.90;;;;;;5031464;28;20272;-72